Bei Facebook empfehlenBei Twitter postenGoogle plusPinterest

Das Wetter im Erzgebirge am 09.08.2016

Wetter und Klima am 09.08.2016 Holzhau im Erzgebirge (630m ü.NN)
Letzte gemessene Temperatur und Uhrzeit der Messung23:45:00 Uhr11.10 °C
Temperatur (Maximum / Höchstwert) und Uhrzeit der Messung17:30:00 Uhr18.10 °C
Temperatur (Minimum / Tiefstwert) und Uhrzeit der Messung04:00:0010.30 °C
Errechneter Absolutwert der Temperaturschwankungen zwischen Tmin und Tmax des Tages7.80 K
Errechnete Tagesmitteltemperatur13.45313 °C
Gesamt - Niederschlag des Tages (in flüssiger Form)2.07 Liter / m²
Luftdruck (Maximum / Höchstwert) und Zeitpunkt der Messung22:30:00 Uhr1016.70 hPa
Luftdruck (Minimum / Tiefstwert) und Zeitpunkt der Messung06:45:00 Uhr1015.10 hPa
Errechneter Absolutwert der Luftdruckschwankungen des Tages1.60 hPa
Höchste gemessene Windgeschwindigkeit und Uhrzeit der Messung23:45:00 Uhr0.00 km/h
Errechnete Windhäufigkeit in Relation zu den Messwerten des Tages0.00000 %
Niedrigste Windkühle (Windchill) und Zeitpunkt der Messung04:00:00 Uhr10.30 °C
Taupunkt (Maximum / Höchstwert) und Uhrzeit der Messung14:30:00 Uhr14.20 °C
Taupunkt (Minimum / Tiefstwert) und Uhrzeit der Messung04:00:008.40 °C
Anzahl der automatisch eingelesenen Messwerte 96

Detaillierte Wetter- und Klima- Messwerte für den 09.08.2016 in Holzhau im Erzgebirge (630m ü.NN)
ZeitTemperaturLuftdruckRel. LuftfeuchteWindWindrichtungWindchillTaupunktNiederschlag l/m²
23:45:0011.10 °C1016.60 hPa88.00 %9.20 °C2.07
23:30:0011.30 °C1016.60 hPa88.00 %9.40 °C2.07
23:15:0011.30 °C1016.50 hPa87.00 %9.20 °C2.07
23:00:0011.30 °C1016.40 hPa87.00 %9.20 °C2.07
22:45:0011.30 °C1016.40 hPa86.00 %9.00 °C2.07
22:30:0011.30 °C1016.70 hPa86.00 %9.00 °C2.07
22:15:0011.30 °C1016.50 hPa85.00 %8.90 °C2.07
22:00:0011.40 °C1016.60 hPa84.00 %8.80 °C2.07
21:45:0011.60 °C1016.50 hPa84.00 %9.00 °C2.07
21:30:0011.70 °C1016.70 hPa83.00 %8.90 °C2.07
21:15:0011.90 °C1016.70 hPa82.00 %8.90 °C2.07
21:00:0012.10 °C1016.60 hPa81.00 %8.90 °C2.07
20:45:0012.40 °C1016.70 hPa79.00 %8.90 °C2.07
20:30:0012.80 °C1016.50 hPa78.00 %9.10 °C2.07
20:15:0013.30 °C1016.20 hPa77.00 %9.40 °C2.07
20:00:0014.10 °C1016.30 hPa75.00 %9.70 °C2.07
19:45:0014.90 °C1016.40 hPa72.00 %9.90 °C2.07
19:30:0015.90 °C1016.30 hPa68.00 %10.00 °C2.07
19:15:0016.60 °C1016.30 hPa68.00 %10.70 °C2.07
19:00:0016.60 °C1016.20 hPa69.00 %10.90 °C2.07
18:45:0016.10 °C1016.50 hPa68.00 %10.20 °C2.07
18:30:0016.40 °C1016.50 hPa67.00 %10.30 °C2.07
18:15:0017.00 °C1016.20 hPa68.00 %11.10 °C2.07
18:00:0017.10 °C1016.30 hPa67.00 %10.90 °C2.07
17:45:0017.60 °C1016.30 hPa64.00 %10.70 °C2.07
17:30:0018.10 °C1016.30 hPa67.00 %11.90 °C2.07
17:15:0017.40 °C1016.40 hPa69.00 %11.70 °C2.07
17:00:0017.60 °C1016.30 hPa69.00 %11.80 °C2.07
16:45:0017.80 °C1016.20 hPa71.00 %12.50 °C2.07
16:30:0017.40 °C1016.30 hPa73.00 %12.50 °C2.07
16:15:0016.90 °C1016.40 hPa77.00 %12.80 °C2.07
16:00:0016.30 °C1016.50 hPa77.00 %12.30 °C2.07
15:45:0016.60 °C1016.60 hPa76.00 %12.40 °C2.07
15:30:0016.90 °C1016.70 hPa77.00 %12.80 °C2.07
15:15:0017.20 °C1016.60 hPa78.00 %13.30 °C2.07
15:00:0017.40 °C1016.50 hPa81.00 %14.10 °C2.07
14:45:0016.90 °C1016.40 hPa82.00 %13.80 °C2.07
14:30:0016.50 °C1016.30 hPa86.00 %14.20 °C2.07
14:15:0015.60 °C1016.20 hPa89.00 %13.80 °C2.07
14:00:0014.80 °C1016.00 hPa89.00 %13.00 °C2.07
13:45:0014.40 °C1016.10 hPa90.00 %12.80 °C2.07
13:30:0014.10 °C1016.10 hPa91.00 %12.70 °C2.07
13:15:0013.30 °C1016.20 hPa92.00 %12.00 °C2.07
13:00:0013.10 °C1016.60 hPa92.00 %11.80 °C2.07
12:45:0012.90 °C1016.40 hPa93.00 %11.80 °C2.07
12:30:0012.50 °C1016.30 hPa92.00 %11.20 °C2.07
12:15:0012.30 °C1016.40 hPa92.00 %11.00 °C2.07
12:00:0011.80 °C1016.60 hPa92.00 %10.50 °C2.07
11:45:0011.90 °C1016.40 hPa92.00 %10.60 °C1.04
11:30:0012.10 °C1016.20 hPa92.00 %10.80 °C1.04
11:15:0012.20 °C1015.90 hPa92.00 %10.90 °C1.04
11:00:0012.20 °C1015.90 hPa92.00 %10.90 °C1.04
10:45:0012.10 °C1016.20 hPa91.00 %10.70 °C0.52
10:30:0012.20 °C1016.10 hPa91.00 %10.80 °C0.52
10:15:0012.20 °C1016.10 hPa91.00 %10.80 °C0.52
10:00:0012.40 °C1016.00 hPa92.00 %11.10 °C0.52
09:45:0012.40 °C1015.70 hPa92.00 %11.10 °C0.52
09:30:0012.20 °C1015.80 hPa92.00 %10.90 °C0.52
09:15:0011.90 °C1015.70 hPa92.00 %10.60 °C0.52
09:00:0011.80 °C1015.50 hPa91.00 %10.40 °C0.52
08:45:0011.80 °C1015.40 hPa91.00 %10.40 °C0.52
08:30:0011.90 °C1015.60 hPa91.00 %10.50 °C 
08:15:0011.90 °C1015.40 hPa91.00 %10.50 °C 
08:00:0012.20 °C1015.40 hPa91.00 %10.80 °C 
07:45:0012.40 °C1015.30 hPa90.00 %10.80 °C 
07:30:0012.60 °C1015.40 hPa90.00 %11.00 °C 
07:15:0012.60 °C1015.40 hPa90.00 %11.00 °C 
07:00:0012.50 °C1015.20 hPa90.00 %10.90 °C 
06:45:0012.40 °C1015.10 hPa90.00 %10.80 °C 
06:30:0012.20 °C1015.10 hPa90.00 %10.60 °C 
06:15:0012.10 °C1015.40 hPa90.00 %10.50 °C 
06:00:0011.90 °C1015.20 hPa89.00 %10.10 °C 
05:45:0011.80 °C1015.30 hPa89.00 %10.00 °C 
05:30:0011.60 °C1015.30 hPa89.00 %9.90 °C 
05:15:0011.40 °C1015.40 hPa89.00 %9.70 °C 
05:00:0011.30 °C1015.50 hPa89.00 %9.60 °C 
04:45:0011.00 °C1015.50 hPa89.00 %9.30 °C 
04:30:0010.80 °C1015.60 hPa88.00 %8.90 °C 
04:15:0010.50 °C1015.40 hPa88.00 %8.60 °C 
04:00:0010.30 °C1015.70 hPa88.00 %8.40 °C 
03:45:0010.50 °C1015.70 hPa87.00 %8.40 °C 
03:30:0010.90 °C1015.70 hPa86.00 %8.70 °C 
03:15:0011.40 °C1015.70 hPa86.00 %9.10 °C 
03:00:0011.90 °C1015.90 hPa85.00 %9.50 °C 
02:45:0012.60 °C1015.90 hPa84.00 %10.00 °C 
02:30:0013.30 °C1016.00 hPa83.00 %10.50 °C 
02:15:0013.90 °C1015.90 hPa83.00 %11.10 °C 
02:00:0014.30 °C1016.00 hPa83.00 %11.50 °C 
01:45:0014.40 °C1016.20 hPa84.00 %11.70 °C 
01:30:0014.40 °C1016.30 hPa84.00 %11.70 °C 
01:15:0014.40 °C1016.20 hPa83.00 %11.60 °C 
01:00:0014.30 °C1016.20 hPa83.00 %11.50 °C 
00:45:0014.30 °C1016.20 hPa83.00 %11.50 °C 
00:30:0014.40 °C1016.20 hPa82.00 %11.40 °C 
00:15:0014.60 °C1016.20 hPa81.00 %11.40 °C 
00:00:0014.90 °C1016.30 hPa80.00 %11.50 °C 

Permanenter Link zu dieser Seite: Wetter im Erzgebirge am 09.08.2016
Performance-Info: Die Erstellung der Seite / Statistik(en) / Tabelle(n) erforderte 5 Datenbankserver-Abfrage(n) und dauerte 70 Millisekunden. (Dieser Messwert ist von der Gesamt-Auslastung des Servers abhängig.)
Erzgebirge - Wetter | Erzgebirge - Wetter (Mobilgeräte) | Komplette Klimadatenbank